Ewing, New Jersey
Current Conditions -  °F | °C
As of 11:53 PM on Saturday 22 Nov 2014 (Local Time) from KTTN Reporting Station
Overcast Overcast  
Wind Chill: 36°   Ceiling: 11000
Heat Index: 40°   Visibility: 10mi
Dew Point: 23°   Wind: 6mph
Humidity: 51%   Direction: 220°SW
Pressure: 30.24"   Gusts: NA
Location:  40.27°N, 74.8°W
Report Text: KTTN 230453Z AUTO 22005KT 10SM FEW090 OVC110 04/M05 A3024 RMK AO2 SLP234 T00441050 400611072
Loading
Personal Weather Stations






























Interactive Weather Map New forecast layout! Learn more

10-Day Weather Forecast

Advertisements
Track Severe Weather on mobile